sensor_id;sensor_type;location;lat;lon;timestamp;P1;durP1;ratioP1;P2;durP2;ratioP2
21010;SDS011;10663;42.714;23.274;2022-09-09T00:01:34;13.43;;;11.98;;
21010;SDS011;10663;42.714;23.274;2022-09-09T00:03:23;12.82;;;11.35;;
21010;SDS011;10663;42.714;23.274;2022-09-09T00:05:44;12.95;;;11.55;;
21010;SDS011;10663;42.714;23.274;2022-09-09T00:06:59;13.90;;;11.63;;
21010;SDS011;10663;42.714;23.274;2022-09-09T00:09:02;15.35;;;12.00;;
21010;SDS011;10663;42.714;23.274;2022-09-09T00:10:40;14.32;;;11.55;;
21010;SDS011;10663;42.714;23.274;2022-09-09T00:12:12;13.50;;;11.85;;
21010;SDS011;10663;42.714;23.274;2022-09-09T00:13:50;13.88;;;11.70;;
21010;SDS011;10663;42.714;23.274;2022-09-09T00:15:29;14.07;;;12.30;;
21010;SDS011;10663;42.714;23.274;2022-09-09T00:19:15;13.30;;;11.68;;
21010;SDS011;10663;42.714;23.274;2022-09-09T00:21:09;14.50;;;12.68;;
21010;SDS011;10663;42.714;23.274;2022-09-09T00:22:55;14.27;;;12.25;;
21010;SDS011;10663;42.714;23.274;2022-09-09T00:24:44;14.13;;;11.88;;
21010;SDS011;10663;42.714;23.274;2022-09-09T00:26:22;13.55;;;11.57;;
21010;SDS011;10663;42.714;23.274;2022-09-09T00:28:18;13.73;;;11.50;;
21010;SDS011;10663;42.714;23.274;2022-09-09T00:29:54;13.85;;;11.70;;
21010;SDS011;10663;42.714;23.274;2022-09-09T00:31:31;14.05;;;11.85;;
21010;SDS011;10663;42.714;23.274;2022-09-09T00:33:09;13.95;;;11.65;;
21010;SDS011;10663;42.714;23.274;2022-09-09T00:35:02;12.15;;;10.82;;
21010;SDS011;10663;42.714;23.274;2022-09-09T00:36:43;14.02;;;10.70;;
21010;SDS011;10663;42.714;23.274;2022-09-09T00:38:26;12.30;;;10.43;;
21010;SDS011;10663;42.714;23.274;2022-09-09T00:40:06;14.57;;;10.77;;
21010;SDS011;10663;42.714;23.274;2022-09-09T00:42:02;11.68;;;10.48;;
21010;SDS011;10663;42.714;23.274;2022-09-09T00:43:40;12.20;;;10.93;;
21010;SDS011;10663;42.714;23.274;2022-09-09T00:52:38;13.57;;;11.63;;
21010;SDS011;10663;42.714;23.274;2022-09-09T00:56:12;12.57;;;11.13;;
21010;SDS011;10663;42.714;23.274;2022-09-09T00:57:51;13.63;;;12.23;;
21010;SDS011;10663;42.714;23.274;2022-09-09T01:01:45;15.48;;;11.98;;
21010;SDS011;10663;42.714;23.274;2022-09-09T01:05:19;16.38;;;12.68;;
21010;SDS011;10663;42.714;23.274;2022-09-09T01:07:00;12.87;;;11.50;;
21010;SDS011;10663;42.714;23.274;2022-09-09T01:14:11;15.25;;;12.77;;
21010;SDS011;10663;42.714;23.274;2022-09-09T01:16:04;14.90;;;12.98;;
21010;SDS011;10663;42.714;23.274;2022-09-09T01:17:52;14.13;;;12.63;;
21010;SDS011;10663;42.714;23.274;2022-09-09T01:19:36;15.27;;;12.68;;
21010;SDS011;10663;42.714;23.274;2022-09-09T01:23:21;14.80;;;12.35;;
21010;SDS011;10663;42.714;23.274;2022-09-09T01:27:06;15.40;;;12.68;;
21010;SDS011;10663;42.714;23.274;2022-09-09T01:28:38;16.20;;;12.38;;
21010;SDS011;10663;42.714;23.274;2022-09-09T01:30:16;16.93;;;13.07;;
21010;SDS011;10663;42.714;23.274;2022-09-09T01:34:17;13.27;;;11.43;;
21010;SDS011;10663;42.714;23.274;2022-09-09T01:35:53;14.55;;;12.65;;
21010;SDS011;10663;42.714;23.274;2022-09-09T01:37:46;13.40;;;11.98;;
21010;SDS011;10663;42.714;23.274;2022-09-09T01:39:18;13.25;;;11.93;;
21010;SDS011;10663;42.714;23.274;2022-09-09T01:40:53;15.30;;;12.07;;
21010;SDS011;10663;42.714;23.274;2022-09-09T01:42:28;16.67;;;12.60;;
21010;SDS011;10663;42.714;23.274;2022-09-09T01:44:00;14.95;;;12.43;;
21010;SDS011;10663;42.714;23.274;2022-09-09T01:45:33;14.02;;;12.27;;
21010;SDS011;10663;42.714;23.274;2022-09-09T01:47:05;15.50;;;12.48;;
21010;SDS011;10663;42.714;23.274;2022-09-09T01:48:37;13.65;;;11.50;;
21010;SDS011;10663;42.714;23.274;2022-09-09T01:50:12;14.48;;;12.23;;
21010;SDS011;10663;42.714;23.274;2022-09-09T01:51:46;16.60;;;13.07;;
21010;SDS011;10663;42.714;23.274;2022-09-09T01:53:23;15.07;;;13.38;;
21010;SDS011;10663;42.714;23.274;2022-09-09T01:54:54;16.70;;;13.60;;
21010;SDS011;10663;42.714;23.274;2022-09-09T02:03:27;15.05;;;13.45;;
21010;SDS011;10663;42.714;23.274;2022-09-09T02:06:55;15.10;;;13.00;;
21010;SDS011;10663;42.714;23.274;2022-09-09T02:10:21;14.43;;;12.88;;
21010;SDS011;10663;42.714;23.274;2022-09-09T02:12:13;13.50;;;12.10;;
21010;SDS011;10663;42.714;23.274;2022-09-09T02:13:58;15.45;;;12.05;;
21010;SDS011;10663;42.714;23.274;2022-09-09T02:17:49;14.85;;;12.30;;
21010;SDS011;10663;42.714;23.274;2022-09-09T02:20:04;13.15;;;11.35;;
21010;SDS011;10663;42.714;23.274;2022-09-09T02:21:32;14.43;;;12.15;;
21010;SDS011;10663;42.714;23.274;2022-09-09T02:23:05;16.52;;;12.82;;
21010;SDS011;10663;42.714;23.274;2022-09-09T02:24:39;17.88;;;12.90;;
21010;SDS011;10663;42.714;23.274;2022-09-09T02:26:19;14.90;;;13.23;;
21010;SDS011;10663;42.714;23.274;2022-09-09T02:27:57;14.35;;;12.85;;
21010;SDS011;10663;42.714;23.274;2022-09-09T02:29:36;17.77;;;12.95;;
21010;SDS011;10663;42.714;23.274;2022-09-09T02:31:15;16.05;;;12.40;;
21010;SDS011;10663;42.714;23.274;2022-09-09T02:32:50;14.02;;;12.52;;
21010;SDS011;10663;42.714;23.274;2022-09-09T02:34:30;15.32;;;12.98;;
21010;SDS011;10663;42.714;23.274;2022-09-09T02:36:05;15.57;;;13.02;;
21010;SDS011;10663;42.714;23.274;2022-09-09T02:37:41;13.73;;;12.13;;
21010;SDS011;10663;42.714;23.274;2022-09-09T02:39:13;14.45;;;12.95;;
21010;SDS011;10663;42.714;23.274;2022-09-09T02:40:44;13.93;;;12.50;;
21010;SDS011;10663;42.714;23.274;2022-09-09T02:42:16;16.77;;;13.38;;
21010;SDS011;10663;42.714;23.274;2022-09-09T02:43:48;14.57;;;13.07;;
21010;SDS011;10663;42.714;23.274;2022-09-09T02:45:20;14.48;;;12.98;;
21010;SDS011;10663;42.714;23.274;2022-09-09T02:54:30;15.45;;;13.18;;
21010;SDS011;10663;42.714;23.274;2022-09-09T02:56:08;15.93;;;14.25;;
21010;SDS011;10663;42.714;23.274;2022-09-09T02:57:48;16.85;;;13.43;;
21010;SDS011;10663;42.714;23.274;2022-09-09T02:59:22;17.23;;;13.82;;
21010;SDS011;10663;42.714;23.274;2022-09-09T03:00:57;15.82;;;14.15;;
21010;SDS011;10663;42.714;23.274;2022-09-09T03:02:30;15.07;;;13.57;;
21010;SDS011;10663;42.714;23.274;2022-09-09T03:04:07;16.00;;;13.63;;
21010;SDS011;10663;42.714;23.274;2022-09-09T03:05:38;17.20;;;14.00;;
21010;SDS011;10663;42.714;23.274;2022-09-09T03:07:09;17.55;;;14.38;;
21010;SDS011;10663;42.714;23.274;2022-09-09T03:08:41;14.52;;;13.00;;
21010;SDS011;10663;42.714;23.274;2022-09-09T03:10:12;15.48;;;13.88;;
21010;SDS011;10663;42.714;23.274;2022-09-09T03:11:43;15.32;;;13.73;;
21010;SDS011;10663;42.714;23.274;2022-09-09T03:13:15;16.65;;;14.13;;
21010;SDS011;10663;42.714;23.274;2022-09-09T03:14:46;16.58;;;13.75;;
21010;SDS011;10663;42.714;23.274;2022-09-09T03:16:18;16.92;;;14.43;;
21010;SDS011;10663;42.714;23.274;2022-09-09T03:17:52;15.98;;;14.27;;
21010;SDS011;10663;42.714;23.274;2022-09-09T03:19:24;16.37;;;14.53;;
21010;SDS011;10663;42.714;23.274;2022-09-09T03:20:55;15.45;;;13.85;;
21010;SDS011;10663;42.714;23.274;2022-09-09T03:22:27;16.75;;;14.55;;
21010;SDS011;10663;42.714;23.274;2022-09-09T03:23:59;15.40;;;13.80;;
21010;SDS011;10663;42.714;23.274;2022-09-09T03:25:30;16.67;;;12.52;;
21010;SDS011;10663;42.714;23.274;2022-09-09T03:27:03;13.77;;;12.32;;
21010;SDS011;10663;42.714;23.274;2022-09-09T03:28:34;15.13;;;13.52;;
21010;SDS011;10663;42.714;23.274;2022-09-09T03:30:06;15.60;;;14.03;;
21010;SDS011;10663;42.714;23.274;2022-09-09T03:31:39;16.85;;;13.68;;
21010;SDS011;10663;42.714;23.274;2022-09-09T03:33:10;14.88;;;13.07;;
21010;SDS011;10663;42.714;23.274;2022-09-09T03:34:42;14.32;;;12.32;;
21010;SDS011;10663;42.714;23.274;2022-09-09T03:36:16;14.43;;;12.65;;
21010;SDS011;10663;42.714;23.274;2022-09-09T03:37:47;15.63;;;13.98;;
21010;SDS011;10663;42.714;23.274;2022-09-09T03:39:19;15.20;;;13.55;;
21010;SDS011;10663;42.714;23.274;2022-09-09T03:40:51;14.73;;;13.23;;
21010;SDS011;10663;42.714;23.274;2022-09-09T03:42:28;15.05;;;12.27;;
21010;SDS011;10663;42.714;23.274;2022-09-09T03:44:00;13.50;;;11.55;;
21010;SDS011;10663;42.714;23.274;2022-09-09T03:45:34;15.88;;;12.63;;
21010;SDS011;10663;42.714;23.274;2022-09-09T03:47:05;15.45;;;11.93;;
21010;SDS011;10663;42.714;23.274;2022-09-09T03:48:37;14.93;;;12.60;;
21010;SDS011;10663;42.714;23.274;2022-09-09T03:50:09;15.30;;;12.70;;
21010;SDS011;10663;42.714;23.274;2022-09-09T03:51:46;15.75;;;13.32;;
21010;SDS011;10663;42.714;23.274;2022-09-09T03:53:18;15.68;;;13.50;;
21010;SDS011;10663;42.714;23.274;2022-09-09T03:54:50;15.45;;;13.02;;
21010;SDS011;10663;42.714;23.274;2022-09-09T03:56:22;15.15;;;12.57;;
21010;SDS011;10663;42.714;23.274;2022-09-09T03:57:53;17.08;;;15.25;;
21010;SDS011;10663;42.714;23.274;2022-09-09T03:59:24;15.70;;;12.93;;
21010;SDS011;10663;42.714;23.274;2022-09-09T04:01:00;17.83;;;13.57;;
21010;SDS011;10663;42.714;23.274;2022-09-09T04:02:33;14.90;;;13.18;;
21010;SDS011;10663;42.714;23.274;2022-09-09T04:04:04;15.65;;;13.57;;
21010;SDS011;10663;42.714;23.274;2022-09-09T04:05:35;16.65;;;13.48;;
21010;SDS011;10663;42.714;23.274;2022-09-09T04:07:10;19.08;;;14.10;;
21010;SDS011;10663;42.714;23.274;2022-09-09T04:08:44;16.95;;;13.70;;
21010;SDS011;10663;42.714;23.274;2022-09-09T04:10:17;17.05;;;14.25;;
21010;SDS011;10663;42.714;23.274;2022-09-09T04:11:47;16.20;;;14.20;;
21010;SDS011;10663;42.714;23.274;2022-09-09T04:13:19;15.10;;;13.30;;
21010;SDS011;10663;42.714;23.274;2022-09-09T04:14:51;15.55;;;13.73;;
21010;SDS011;10663;42.714;23.274;2022-09-09T04:16:22;15.82;;;13.50;;
21010;SDS011;10663;42.714;23.274;2022-09-09T04:17:53;19.92;;;14.80;;
21010;SDS011;10663;42.714;23.274;2022-09-09T04:19:24;17.43;;;14.43;;
21010;SDS011;10663;42.714;23.274;2022-09-09T04:20:55;18.05;;;14.00;;
21010;SDS011;10663;42.714;23.274;2022-09-09T04:22:29;18.75;;;15.70;;
21010;SDS011;10663;42.714;23.274;2022-09-09T04:24:00;17.80;;;14.93;;
21010;SDS011;10663;42.714;23.274;2022-09-09T04:25:31;16.98;;;14.57;;
21010;SDS011;10663;42.714;23.274;2022-09-09T04:27:04;19.10;;;15.05;;
21010;SDS011;10663;42.714;23.274;2022-09-09T04:28:37;20.10;;;15.93;;
21010;SDS011;10663;42.714;23.274;2022-09-09T04:30:13;18.13;;;14.25;;
21010;SDS011;10663;42.714;23.274;2022-09-09T04:31:45;21.90;;;16.02;;
21010;SDS011;10663;42.714;23.274;2022-09-09T04:33:17;20.17;;;14.95;;
21010;SDS011;10663;42.714;23.274;2022-09-09T04:34:49;20.85;;;15.23;;
21010;SDS011;10663;42.714;23.274;2022-09-09T04:36:20;20.90;;;16.58;;
21010;SDS011;10663;42.714;23.274;2022-09-09T04:37:53;23.05;;;15.00;;
21010;SDS011;10663;42.714;23.274;2022-09-09T04:39:24;21.63;;;15.52;;
21010;SDS011;10663;42.714;23.274;2022-09-09T04:40:55;25.02;;;15.75;;
21010;SDS011;10663;42.714;23.274;2022-09-09T04:42:27;18.15;;;14.13;;
21010;SDS011;10663;42.714;23.274;2022-09-09T04:43:58;21.25;;;14.25;;
21010;SDS011;10663;42.714;23.274;2022-09-09T04:45:31;23.90;;;15.50;;
21010;SDS011;10663;42.714;23.274;2022-09-09T04:47:03;21.00;;;16.30;;
21010;SDS011;10663;42.714;23.274;2022-09-09T04:48:33;19.15;;;14.63;;
21010;SDS011;10663;42.714;23.274;2022-09-09T04:50:05;19.75;;;15.05;;
21010;SDS011;10663;42.714;23.274;2022-09-09T04:51:38;19.08;;;14.48;;
21010;SDS011;10663;42.714;23.274;2022-09-09T04:53:09;18.77;;;14.32;;
21010;SDS011;10663;42.714;23.274;2022-09-09T04:54:42;22.85;;;15.43;;
21010;SDS011;10663;42.714;23.274;2022-09-09T04:56:16;23.05;;;15.85;;
21010;SDS011;10663;42.714;23.274;2022-09-09T04:58:07;20.83;;;16.38;;
21010;SDS011;10663;42.714;23.274;2022-09-09T04:59:39;22.23;;;15.10;;
21010;SDS011;10663;42.714;23.274;2022-09-09T05:01:11;17.40;;;15.15;;
21010;SDS011;10663;42.714;23.274;2022-09-09T05:02:45;21.83;;;15.25;;
21010;SDS011;10663;42.714;23.274;2022-09-09T05:04:17;19.90;;;15.25;;
21010;SDS011;10663;42.714;23.274;2022-09-09T05:05:49;19.45;;;15.02;;
21010;SDS011;10663;42.714;23.274;2022-09-09T05:07:20;23.52;;;16.02;;
21010;SDS011;10663;42.714;23.274;2022-09-09T05:08:51;18.70;;;15.68;;
21010;SDS011;10663;42.714;23.274;2022-09-09T05:10:27;20.58;;;15.80;;
21010;SDS011;10663;42.714;23.274;2022-09-09T05:11:58;19.17;;;15.32;;
21010;SDS011;10663;42.714;23.274;2022-09-09T05:13:36;27.42;;;20.95;;
21010;SDS011;10663;42.714;23.274;2022-09-09T05:15:07;21.13;;;18.97;;
21010;SDS011;10663;42.714;23.274;2022-09-09T05:16:38;19.77;;;16.30;;
21010;SDS011;10663;42.714;23.274;2022-09-09T05:18:10;19.23;;;16.52;;
21010;SDS011;10663;42.714;23.274;2022-09-09T05:19:41;22.75;;;17.30;;
21010;SDS011;10663;42.714;23.274;2022-09-09T05:21:12;20.23;;;17.25;;
21010;SDS011;10663;42.714;23.274;2022-09-09T05:22:45;19.67;;;16.60;;
21010;SDS011;10663;42.714;23.274;2022-09-09T05:24:15;21.77;;;16.20;;
21010;SDS011;10663;42.714;23.274;2022-09-09T05:25:55;21.10;;;15.55;;
21010;SDS011;10663;42.714;23.274;2022-09-09T05:27:27;21.08;;;16.10;;
21010;SDS011;10663;42.714;23.274;2022-09-09T05:28:58;18.45;;;15.27;;
21010;SDS011;10663;42.714;23.274;2022-09-09T05:30:31;19.70;;;15.18;;
21010;SDS011;10663;42.714;23.274;2022-09-09T05:32:02;16.83;;;15.05;;
21010;SDS011;10663;42.714;23.274;2022-09-09T05:33:35;16.75;;;15.02;;
21010;SDS011;10663;42.714;23.274;2022-09-09T05:35:06;16.77;;;14.70;;
21010;SDS011;10663;42.714;23.274;2022-09-09T05:36:37;14.85;;;13.25;;
21010;SDS011;10663;42.714;23.274;2022-09-09T05:38:08;17.52;;;14.23;;
21010;SDS011;10663;42.714;23.274;2022-09-09T05:39:39;14.85;;;13.18;;
21010;SDS011;10663;42.714;23.274;2022-09-09T05:41:10;19.03;;;14.00;;
21010;SDS011;10663;42.714;23.274;2022-09-09T05:42:42;17.05;;;13.43;;
21010;SDS011;10663;42.714;23.274;2022-09-09T05:44:13;17.98;;;13.73;;
21010;SDS011;10663;42.714;23.274;2022-09-09T05:45:44;18.80;;;15.35;;
21010;SDS011;10663;42.714;23.274;2022-09-09T05:47:17;17.60;;;13.77;;
21010;SDS011;10663;42.714;23.274;2022-09-09T05:48:48;15.77;;;13.90;;
21010;SDS011;10663;42.714;23.274;2022-09-09T05:50:22;17.13;;;14.68;;
21010;SDS011;10663;42.714;23.274;2022-09-09T05:51:55;19.45;;;14.88;;
21010;SDS011;10663;42.714;23.274;2022-09-09T05:53:27;16.70;;;13.52;;
21010;SDS011;10663;42.714;23.274;2022-09-09T05:55:02;19.27;;;14.07;;
21010;SDS011;10663;42.714;23.274;2022-09-09T05:56:35;18.58;;;14.50;;
21010;SDS011;10663;42.714;23.274;2022-09-09T05:58:05;17.80;;;15.47;;
21010;SDS011;10663;42.714;23.274;2022-09-09T05:59:36;18.65;;;15.15;;
21010;SDS011;10663;42.714;23.274;2022-09-09T06:01:10;18.98;;;14.75;;
21010;SDS011;10663;42.714;23.274;2022-09-09T06:02:42;17.30;;;14.80;;
21010;SDS011;10663;42.714;23.274;2022-09-09T06:04:16;18.90;;;15.07;;
21010;SDS011;10663;42.714;23.274;2022-09-09T06:05:47;17.83;;;14.88;;
21010;SDS011;10663;42.714;23.274;2022-09-09T06:07:17;21.02;;;14.77;;
21010;SDS011;10663;42.714;23.274;2022-09-09T06:08:50;17.90;;;14.38;;
21010;SDS011;10663;42.714;23.274;2022-09-09T06:10:22;16.67;;;14.43;;
21010;SDS011;10663;42.714;23.274;2022-09-09T06:11:53;18.67;;;14.43;;
21010;SDS011;10663;42.714;23.274;2022-09-09T06:13:26;18.20;;;15.13;;
21010;SDS011;10663;42.714;23.274;2022-09-09T06:14:57;19.55;;;15.00;;
21010;SDS011;10663;42.714;23.274;2022-09-09T06:16:28;20.10;;;14.77;;
21010;SDS011;10663;42.714;23.274;2022-09-09T06:18:00;18.90;;;15.40;;
21010;SDS011;10663;42.714;23.274;2022-09-09T06:19:31;19.25;;;15.73;;
21010;SDS011;10663;42.714;23.274;2022-09-09T06:21:04;18.55;;;14.60;;
21010;SDS011;10663;42.714;23.274;2022-09-09T06:22:38;18.00;;;14.07;;
21010;SDS011;10663;42.714;23.274;2022-09-09T06:24:11;21.42;;;15.20;;
21010;SDS011;10663;42.714;23.274;2022-09-09T06:25:44;26.27;;;16.75;;
21010;SDS011;10663;42.714;23.274;2022-09-09T06:27:15;29.77;;;17.60;;
21010;SDS011;10663;42.714;23.274;2022-09-09T06:28:47;20.55;;;15.68;;
21010;SDS011;10663;42.714;23.274;2022-09-09T06:30:19;19.25;;;14.38;;
21010;SDS011;10663;42.714;23.274;2022-09-09T06:31:50;19.48;;;14.30;;
21010;SDS011;10663;42.714;23.274;2022-09-09T06:33:25;18.42;;;13.82;;
21010;SDS011;10663;42.714;23.274;2022-09-09T06:34:56;16.40;;;13.87;;
21010;SDS011;10663;42.714;23.274;2022-09-09T06:36:28;20.13;;;14.23;;
21010;SDS011;10663;42.714;23.274;2022-09-09T06:38:01;17.90;;;14.18;;
21010;SDS011;10663;42.714;23.274;2022-09-09T06:39:32;28.00;;;15.80;;
21010;SDS011;10663;42.714;23.274;2022-09-09T06:41:03;19.40;;;14.63;;
21010;SDS011;10663;42.714;23.274;2022-09-09T06:42:36;14.73;;;13.15;;
21010;SDS011;10663;42.714;23.274;2022-09-09T06:44:36;17.58;;;13.00;;
21010;SDS011;10663;42.714;23.274;2022-09-09T06:46:10;14.88;;;12.38;;
21010;SDS011;10663;42.714;23.274;2022-09-09T06:47:43;16.05;;;12.45;;
21010;SDS011;10663;42.714;23.274;2022-09-09T06:49:14;14.65;;;11.77;;
21010;SDS011;10663;42.714;23.274;2022-09-09T06:50:46;14.60;;;11.63;;
21010;SDS011;10663;42.714;23.274;2022-09-09T06:52:17;17.13;;;12.30;;
21010;SDS011;10663;42.714;23.274;2022-09-09T06:53:52;17.23;;;13.07;;
21010;SDS011;10663;42.714;23.274;2022-09-09T06:55:28;17.20;;;12.40;;
21010;SDS011;10663;42.714;23.274;2022-09-09T06:56:59;14.13;;;11.02;;
21010;SDS011;10663;42.714;23.274;2022-09-09T06:58:31;14.45;;;11.75;;
21010;SDS011;10663;42.714;23.274;2022-09-09T07:00:04;12.43;;;10.60;;
21010;SDS011;10663;42.714;23.274;2022-09-09T07:01:37;10.97;;;9.80;;
21010;SDS011;10663;42.714;23.274;2022-09-09T07:03:16;14.45;;;11.55;;
21010;SDS011;10663;42.714;23.274;2022-09-09T07:04:48;17.00;;;11.27;;
21010;SDS011;10663;42.714;23.274;2022-09-09T07:06:25;15.48;;;11.38;;
21010;SDS011;10663;42.714;23.274;2022-09-09T07:07:58;12.77;;;11.20;;
21010;SDS011;10663;42.714;23.274;2022-09-09T07:09:30;14.63;;;10.50;;
21010;SDS011;10663;42.714;23.274;2022-09-09T07:11:05;14.95;;;10.73;;
21010;SDS011;10663;42.714;23.274;2022-09-09T07:12:40;13.53;;;10.43;;
21010;SDS011;10663;42.714;23.274;2022-09-09T07:14:14;16.08;;;11.27;;
21010;SDS011;10663;42.714;23.274;2022-09-09T07:15:48;14.93;;;10.48;;
21010;SDS011;10663;42.714;23.274;2022-09-09T07:17:20;13.95;;;10.50;;
21010;SDS011;10663;42.714;23.274;2022-09-09T07:18:51;13.90;;;11.27;;
21010;SDS011;10663;42.714;23.274;2022-09-09T07:20:23;14.23;;;9.90;;
21010;SDS011;10663;42.714;23.274;2022-09-09T07:21:55;11.73;;;9.95;;
21010;SDS011;10663;42.714;23.274;2022-09-09T07:23:28;13.80;;;9.98;;
21010;SDS011;10663;42.714;23.274;2022-09-09T07:25:00;13.40;;;10.13;;
21010;SDS011;10663;42.714;23.274;2022-09-09T07:26:33;12.85;;;11.00;;
21010;SDS011;10663;42.714;23.274;2022-09-09T07:28:06;15.07;;;11.80;;
21010;SDS011;10663;42.714;23.274;2022-09-09T07:29:38;14.25;;;11.68;;
21010;SDS011;10663;42.714;23.274;2022-09-09T07:31:13;14.20;;;10.77;;
21010;SDS011;10663;42.714;23.274;2022-09-09T07:32:55;12.07;;;9.60;;
21010;SDS011;10663;42.714;23.274;2022-09-09T07:34:27;13.32;;;9.77;;
21010;SDS011;10663;42.714;23.274;2022-09-09T07:36:08;12.82;;;9.85;;
21010;SDS011;10663;42.714;23.274;2022-09-09T07:37:52;12.90;;;9.60;;
21010;SDS011;10663;42.714;23.274;2022-09-09T07:39:24;13.32;;;10.20;;
21010;SDS011;10663;42.714;23.274;2022-09-09T07:41:04;11.48;;;9.93;;
21010;SDS011;10663;42.714;23.274;2022-09-09T07:42:36;10.88;;;8.55;;
21010;SDS011;10663;42.714;23.274;2022-09-09T07:44:08;10.57;;;8.63;;
21010;SDS011;10663;42.714;23.274;2022-09-09T07:45:42;11.82;;;9.23;;
21010;SDS011;10663;42.714;23.274;2022-09-09T07:47:12;10.53;;;8.47;;
21010;SDS011;10663;42.714;23.274;2022-09-09T07:48:49;10.77;;;8.80;;
21010;SDS011;10663;42.714;23.274;2022-09-09T07:50:26;12.30;;;8.33;;
21010;SDS011;10663;42.714;23.274;2022-09-09T07:51:57;14.80;;;9.02;;
21010;SDS011;10663;42.714;23.274;2022-09-09T07:53:29;11.87;;;8.67;;
21010;SDS011;10663;42.714;23.274;2022-09-09T07:55:02;10.77;;;8.20;;
21010;SDS011;10663;42.714;23.274;2022-09-09T07:56:35;9.73;;;7.97;;
21010;SDS011;10663;42.714;23.274;2022-09-09T07:58:07;10.90;;;8.15;;
21010;SDS011;10663;42.714;23.274;2022-09-09T07:59:38;10.93;;;7.63;;
21010;SDS011;10663;42.714;23.274;2022-09-09T08:01:10;9.75;;;8.15;;
21010;SDS011;10663;42.714;23.274;2022-09-09T08:02:45;10.85;;;7.75;;
21010;SDS011;10663;42.714;23.274;2022-09-09T08:04:17;9.27;;;7.18;;
21010;SDS011;10663;42.714;23.274;2022-09-09T08:05:51;9.50;;;7.82;;
21010;SDS011;10663;42.714;23.274;2022-09-09T08:07:22;8.43;;;7.18;;
21010;SDS011;10663;42.714;23.274;2022-09-09T08:08:57;8.07;;;7.18;;
21010;SDS011;10663;42.714;23.274;2022-09-09T08:10:29;8.70;;;7.50;;
21010;SDS011;10663;42.714;23.274;2022-09-09T08:12:00;11.15;;;7.00;;
21010;SDS011;10663;42.714;23.274;2022-09-09T08:13:34;9.27;;;6.95;;
21010;SDS011;10663;42.714;23.274;2022-09-09T08:15:07;9.30;;;6.90;;
21010;SDS011;10663;42.714;23.274;2022-09-09T08:16:39;8.85;;;6.68;;
21010;SDS011;10663;42.714;23.274;2022-09-09T08:18:12;9.20;;;6.80;;
21010;SDS011;10663;42.714;23.274;2022-09-09T08:19:43;8.70;;;6.43;;
21010;SDS011;10663;42.714;23.274;2022-09-09T08:21:24;9.70;;;6.60;;
21010;SDS011;10663;42.714;23.274;2022-09-09T08:22:59;7.78;;;6.20;;
21010;SDS011;10663;42.714;23.274;2022-09-09T08:24:30;8.70;;;7.23;;
21010;SDS011;10663;42.714;23.274;2022-09-09T08:26:10;7.53;;;6.68;;
21010;SDS011;10663;42.714;23.274;2022-09-09T08:27:45;10.35;;;6.50;;
21010;SDS011;10663;42.714;23.274;2022-09-09T08:29:16;10.75;;;8.60;;
21010;SDS011;10663;42.714;23.274;2022-09-09T08:30:49;10.45;;;6.78;;
21010;SDS011;10663;42.714;23.274;2022-09-09T08:32:21;8.48;;;6.63;;
21010;SDS011;10663;42.714;23.274;2022-09-09T08:33:53;11.93;;;6.87;;
21010;SDS011;10663;42.714;23.274;2022-09-09T08:35:26;9.45;;;7.40;;
21010;SDS011;10663;42.714;23.274;2022-09-09T08:36:57;8.05;;;6.43;;
21010;SDS011;10663;42.714;23.274;2022-09-09T08:38:35;7.93;;;6.63;;
21010;SDS011;10663;42.714;23.274;2022-09-09T08:40:09;7.82;;;6.20;;
21010;SDS011;10663;42.714;23.274;2022-09-09T08:43:43;9.25;;;6.70;;
21010;SDS011;10663;42.714;23.274;2022-09-09T08:45:27;9.43;;;6.90;;
21010;SDS011;10663;42.714;23.274;2022-09-09T08:50:35;10.20;;;6.32;;
21010;SDS011;10663;42.714;23.274;2022-09-09T08:54:33;8.27;;;6.30;;
21010;SDS011;10663;42.714;23.274;2022-09-09T08:56:09;6.97;;;6.28;;
21010;SDS011;10663;42.714;23.274;2022-09-09T08:57:49;7.78;;;5.80;;
21010;SDS011;10663;42.714;23.274;2022-09-09T08:59:23;8.60;;;5.45;;
21010;SDS011;10663;42.714;23.274;2022-09-09T09:02:48;7.63;;;6.00;;
21010;SDS011;10663;42.714;23.274;2022-09-09T09:04:48;8.63;;;6.05;;
21010;SDS011;10663;42.714;23.274;2022-09-09T09:08:15;8.50;;;6.10;;
21010;SDS011;10663;42.714;23.274;2022-09-09T09:10:02;7.85;;;6.53;;
21010;SDS011;10663;42.714;23.274;2022-09-09T09:11:55;7.65;;;6.22;;
21010;SDS011;10663;42.714;23.274;2022-09-09T09:13:37;11.88;;;6.18;;
21010;SDS011;10663;42.714;23.274;2022-09-09T09:15:16;7.18;;;5.93;;
21010;SDS011;10663;42.714;23.274;2022-09-09T09:17:10;9.27;;;5.90;;
21010;SDS011;10663;42.714;23.274;2022-09-09T09:18:45;7.00;;;6.03;;
21010;SDS011;10663;42.714;23.274;2022-09-09T09:20:18;7.67;;;6.50;;
21010;SDS011;10663;42.714;23.274;2022-09-09T09:23:55;6.90;;;6.20;;
21010;SDS011;10663;42.714;23.274;2022-09-09T09:25:34;7.28;;;6.28;;
21010;SDS011;10663;42.714;23.274;2022-09-09T09:27:57;7.15;;;5.90;;
21010;SDS011;10663;42.714;23.274;2022-09-09T09:28:59;11.75;;;6.57;;
21010;SDS011;10663;42.714;23.274;2022-09-09T09:30:42;8.07;;;6.30;;
21010;SDS011;10663;42.714;23.274;2022-09-09T09:32:20;7.90;;;6.32;;
21010;SDS011;10663;42.714;23.274;2022-09-09T09:33:53;7.72;;;6.30;;
21010;SDS011;10663;42.714;23.274;2022-09-09T09:35:29;9.02;;;6.20;;
21010;SDS011;10663;42.714;23.274;2022-09-09T09:37:00;8.02;;;6.30;;
21010;SDS011;10663;42.714;23.274;2022-09-09T09:38:37;8.75;;;5.70;;
21010;SDS011;10663;42.714;23.274;2022-09-09T09:40:11;7.20;;;6.20;;
21010;SDS011;10663;42.714;23.274;2022-09-09T09:41:44;8.13;;;6.22;;
21010;SDS011;10663;42.714;23.274;2022-09-09T09:43:20;7.22;;;6.18;;
21010;SDS011;10663;42.714;23.274;2022-09-09T09:44:56;8.55;;;6.50;;
21010;SDS011;10663;42.714;23.274;2022-09-09T09:46:37;7.57;;;5.90;;
21010;SDS011;10663;42.714;23.274;2022-09-09T09:48:13;7.32;;;6.50;;
21010;SDS011;10663;42.714;23.274;2022-09-09T09:49:57;11.23;;;6.68;;
21010;SDS011;10663;42.714;23.274;2022-09-09T09:51:31;9.35;;;6.55;;
21010;SDS011;10663;42.714;23.274;2022-09-09T09:53:05;9.15;;;7.35;;
21010;SDS011;10663;42.714;23.274;2022-09-09T09:54:49;13.57;;;8.38;;
21010;SDS011;10663;42.714;23.274;2022-09-09T09:56:26;13.20;;;10.65;;
21010;SDS011;10663;42.714;23.274;2022-09-09T09:58:04;13.33;;;9.30;;
21010;SDS011;10663;42.714;23.274;2022-09-09T09:59:37;12.15;;;9.27;;
21010;SDS011;10663;42.714;23.274;2022-09-09T10:01:27;13.52;;;8.98;;
21010;SDS011;10663;42.714;23.274;2022-09-09T10:03:13;9.88;;;7.18;;
21010;SDS011;10663;42.714;23.274;2022-09-09T10:05:00;11.30;;;6.88;;
21010;SDS011;10663;42.714;23.274;2022-09-09T10:06:37;9.80;;;7.50;;
21010;SDS011;10663;42.714;23.274;2022-09-09T10:08:11;9.15;;;7.60;;
21010;SDS011;10663;42.714;23.274;2022-09-09T10:09:43;9.43;;;7.10;;
21010;SDS011;10663;42.714;23.274;2022-09-09T10:17:07;9.55;;;7.35;;
21010;SDS011;10663;42.714;23.274;2022-09-09T10:19:00;9.80;;;7.07;;
21010;SDS011;10663;42.714;23.274;2022-09-09T10:20:37;9.03;;;7.27;;